M I D A S
Marine Information and Data Acquisition System
Tripno 777 of the Zeeleeuw from 2004-06-01 07:27:25 to 2004-06-01 14:19:10
Back to CruiseResearch ActivitiesStationsMapUnderway DataData graphs

EquipmentUnitsComment
TimeDGPSUTC
LatitudeDGPSDM.mWGS84
LongitudeDGPSDM.mWGS84
HeadingGyrodeg 
SOGDGPSknotsSpeed over ground
COGDGPSdegCourse over ground
DepthEcho soundermeters200 kHz
Missing or incorrect values are displayed as -999
Navigation data collected by the RV Zeeleeuw from 2004-06-01 07:27:25 to 2004-06-01 14:19:10
                                                                                    Next 1000 lines
Time Latitude Longitude Heading SOG COG Depth
2004-06-01 07:27:36 51°13.596 2°56.095 134.5 0.1 185 6.9
2004-06-01 07:27:41 51°13.596 2°56.095 135 0.1 175 6.9
2004-06-01 07:27:45 51°13.596 2°56.095 135.2 0.1 167 6.9
2004-06-01 07:27:50 51°13.595 2°56.096 135.2 0.2 142 6.9
2004-06-01 07:27:56 51°13.595 2°56.097 135.2 0.7 134 6.9
2004-06-01 07:28:01 51°13.594 2°56.099 135.2 1 132 6.9
2004-06-01 07:28:06 51°13.592 2°56.101 135.2 1.3 132 6.9
2004-06-01 07:28:11 51°13.591 2°56.104 135.5 1.7 131 7
2004-06-01 07:28:16 51°13.589 2°56.107 135.6 2 132 7.3
2004-06-01 07:28:21 51°13.587 2°56.111 135.7 2.1 131 8
2004-06-01 07:28:25 51°13.585 2°56.114 135.9 2.3 131 8.2
2004-06-01 07:28:31 51°13.582 2°56.119 136 2.5 131 8.4
2004-06-01 07:28:36 51°13.58 2°56.124 136.1 2.8 132 8.5
2004-06-01 07:28:41 51°13.577 2°56.129 136.1 2.9 131 8.5
2004-06-01 07:28:45 51°13.575 2°56.133 136.1 3.1 131 8.6
2004-06-01 07:28:51 51°13.571 2°56.139 136 3.3 131 8.6
2004-06-01 07:28:55 51°13.569 2°56.144 136 3.4 132 8.7
2004-06-01 07:29:01 51°13.565 2°56.151 136 3.5 132 8.8
2004-06-01 07:29:04 51°13.563 2°56.154 136.2 3.5 132 9.3
2004-06-01 07:29:11 51°13.558 2°56.162 136.4 3.5 132 9.4
2004-06-01 07:29:16 51°13.554 2°56.168 136.6 3.6 133 9.3
2004-06-01 07:29:21 51°13.551 2°56.174 136.8 3.6 133 9.3
2004-06-01 07:29:25 51°13.548 2°56.179 137 3.6 132 9.3
2004-06-01 07:29:31 51°13.544 2°56.186 136.5 3.7 130 9.4
2004-06-01 07:29:36 51°13.541 2°56.193 133.9 3.7 127 9.5
2004-06-01 07:29:41 51°13.539 2°56.2 128.9 3.8 122 9.4
2004-06-01 07:29:45 51°13.537 2°56.205 124.2 3.7 118 9.5
2004-06-01 07:29:51 51°13.535 2°56.215 118.4 3.7 111 9.4
2004-06-01 07:29:55 51°13.533 2°56.221 112.5 3.7 104 9.4
2004-06-01 07:30:01 51°13.533 2°56.231 105.2 3.7 99 9.3
2004-06-01 07:30:05 51°13.532 2°56.237 98.7 3.7 94 9.3
2004-06-01 07:30:11 51°13.533 2°56.247 92.1 3.7 90 9.2
2004-06-01 07:30:15 51°13.533 2°56.253 87.4 3.3 82 9.2
2004-06-01 07:30:21 51°13.534 2°56.259 84.8 2.7 82 9.1
2004-06-01 07:30:25 51°13.535 2°56.263 81.4 2.1 80 9.1
2004-06-01 07:30:31 51°13.535 2°56.266 76.7 1.2 77 9.1
2004-06-01 07:30:36 51°13.535 2°56.267 72.9 0.5 79 9.1
2004-06-01 07:30:41 51°13.535 2°56.267 70.7 0.2 111 9.1
2004-06-01 07:30:45 51°13.535 2°56.267 69.8 0.1 145 9.2
2004-06-01 07:30:51 51°13.535 2°56.268 69.7 0.1 138 9.2
2004-06-01 07:30:56 51°13.536 2°56.269 69.6 0.7 58 9.2
2004-06-01 07:31:01 51°13.537 2°56.272 67.4 1.3 61 9.2
2004-06-01 07:31:05 51°13.538 2°56.274 61.6 1.7 54 9.1
2004-06-01 07:31:11 51°13.54 2°56.278 54.7 1.8 51 9.1
2004-06-01 07:31:15 51°13.541 2°56.28 50.1 1.5 45 9.1
2004-06-01 07:31:21 51°13.542 2°56.281 46.7 1.1 45 9.1
2004-06-01 07:31:24 51°13.543 2°56.282 43 0.6 43 9.1
2004-06-01 07:31:31 51°13.542 2°56.282 39.6 0.2 47 9.1
2004-06-01 07:31:36 51°13.542 2°56.281 36.8 0.6 207 9.2
2004-06-01 07:31:41 51°13.54 2°56.28 34.5 1 206 9.1
2004-06-01 07:31:45 51°13.539 2°56.279 32.8 1.3 206 9.1
2004-06-01 07:31:51 51°13.536 2°56.277 30.4 1.9 205 -999
2004-06-01 07:31:56 51°13.533 2°56.275 28 2.2 203 -999
2004-06-01 07:32:01 51°13.53 2°56.274 26.3 2.1 202 -999
2004-06-01 07:32:07 51°13.527 2°56.272 25.7 1.9 202 -999
2004-06-01 07:32:12 51°13.526 2°56.271 24.8 1.3 198 -999
2004-06-01 07:32:17 51°13.525 2°56.27 23 0.9 199 -999
2004-06-01 07:32:21 51°13.524 2°56.27 20.5 0.4 197 -999
2004-06-01 07:32:27 51°13.524 2°56.27 17.9 0.3 194 -999
2004-06-01 07:32:31 51°13.525 2°56.27 15.4 0.2   9.3
2004-06-01 07:32:36 51°13.526 2°56.27 12.7 0.7 14 9.2
2004-06-01 07:32:41 51°13.527 2°56.27 8.8 0.8 7 9.3
2004-06-01 07:32:45 51°13.528 2°56.271 5.8 0.7 10 -999
2004-06-01 07:32:52 51°13.528 2°56.271 4.3 0.2 30 -999
2004-06-01 07:32:56 51°13.528 2°56.271 2.4 0.2 113 -999
2004-06-01 07:33:01 51°13.527 2°56.272 1.6 0.4 156 4.9
2004-06-01 07:33:05 51°13.526 2°56.272 1.2 0.9 166 9.1
2004-06-01 07:33:11 51°13.524 2°56.273 1.1 1.3 169 9.2
2004-06-01 07:33:16 51°13.522 2°56.273 1.3 1.5 170 9.2
2004-06-01 07:33:20 51°13.52 2°56.273 1.5 1.5 171 9.2
2004-06-01 07:33:25 51°13.518 2°56.274 2.2 1.4 172 -999
2004-06-01 07:33:32 51°13.517 2°56.274 3.3 0.9 175 -999
2004-06-01 07:33:36 51°13.517 2°56.274 3.3 0.1 107 5
2004-06-01 07:33:41 51°13.518 2°56.274 359.5 0.7 351 5
2004-06-01 07:33:45 51°13.52 2°56.273 354.5 1.8 342 -999
2004-06-01 07:33:52 51°13.524 2°56.27 345.4 2.8 333 -999
2004-06-01 07:33:56 51°13.528 2°56.266 336.1 3.5 327 9.1
2004-06-01 07:34:01 51°13.532 2°56.261 328.7 3.7 321 9.2
2004-06-01 07:34:05 51°13.534 2°56.256 319.6 3.5 310 9.3
2004-06-01 07:34:11 51°13.538 2°56.249 314 3.4 309 9.4
2004-06-01 07:34:16 51°13.54 2°56.243 308.8 3.2 302 9.2
2004-06-01 07:34:21 51°13.542 2°56.237 304.1 3.2 299 9.2
2004-06-01 07:34:25 51°13.543 2°56.232 300.5 3.1 295 9
2004-06-01 07:34:31 51°13.545 2°56.225 298.1 3 293 9.1
2004-06-01 07:34:36 51°13.547 2°56.219 296.3 3 293 9.1
2004-06-01 07:34:41 51°13.548 2°56.213 295.6 2.9 291 9.1
2004-06-01 07:34:45 51°13.549 2°56.208 294.7 2.9 291 9.1
2004-06-01 07:34:51 51°13.551 2°56.201 294 2.8 289 9.3
2004-06-01 07:34:55 51°13.552 2°56.197 293.2 2.8 289 9.1
2004-06-01 07:35:01 51°13.554 2°56.19 292.6 2.8 289 9.1
2004-06-01 07:35:05 51°13.554 2°56.185 292 2.8 289 9
2004-06-01 07:35:11 51°13.556 2°56.178 291.2 2.8 288 9
2004-06-01 07:35:16 51°13.557 2°56.172 290.8 2.7 288 9.1
2004-06-01 07:35:21 51°13.558 2°56.167 290.4 2.7 288 9.1
2004-06-01 07:35:25 51°13.559 2°56.162 290.4 2.7 288 9.3
2004-06-01 07:35:31 51°13.56 2°56.155 290.4 2.7 289 9.3
2004-06-01 07:35:35 51°13.561 2°56.151 291 2.6 290 9.1
2004-06-01 07:35:41 51°13.563 2°56.144 291.5 2.6 290 9.1
2004-06-01 07:35:45 51°13.564 2°56.14 292.3 2.6 291 9.2
2004-06-01 07:35:51 51°13.566 2°56.134 292.9 2.6 291 9.3
2004-06-01 07:35:56 51°13.567 2°56.129 294 2.5 292 9.2
2004-06-01 07:36:01 51°13.568 2°56.124 294.8 2.5 293 9.3
2004-06-01 07:36:06 51°13.569 2°56.119 295.7 2.4 294 9.7
2004-06-01 07:36:11 51°13.571 2°56.114 296.5 2.4 294 9.4
2004-06-01 07:36:15 51°13.572 2°56.11 297.2 2.3 295 9.2
2004-06-01 07:36:23 51°13.574 2°56.103 297.9 2.2 294 9.3
2004-06-01 07:36:27 51°13.575 2°56.099 298.5 2.1 296 9.4
2004-06-01 07:36:32 51°13.576 2°56.095 299.2 2.2 296 9.7
2004-06-01 07:36:37 51°13.578 2°56.091 300.3 2.2 300 9.4
2004-06-01 07:36:41 51°13.579 2°56.087 301.2 2.1 298 9.2
2004-06-01 07:36:47 51°13.581 2°56.082 302.2 2.1 299 9
2004-06-01 07:36:52 51°13.582 2°56.079 303.2 2 300 9
2004-06-01 07:36:58 51°13.584 2°56.074 304.1 2 302 9.2
2004-06-01 07:37:02 51°13.585 2°56.071 304.9 2 302 9.1
2004-06-01 07:37:08 51°13.587 2°56.067 305.6 2 303 9
2004-06-01 07:37:12 51°13.588 2°56.064 306.7 2 304 9
2004-06-01 07:37:18 51°13.59 2°56.06 307.3 1.9 305 9.1
2004-06-01 07:37:21 51°13.591 2°56.058 307.6 1.9 304 9.2
2004-06-01 07:37:28 51°13.593 2°56.053 307.7 1.8 304 9.1
2004-06-01 07:37:32 51°13.594 2°56.051 307.7 1.6 304 9.3
2004-06-01 07:37:38 51°13.595 2°56.048 307.8 1.5 306 9.5
2004-06-01 07:37:42 51°13.596 2°56.046 308 1.3 305 9.5
2004-06-01 07:37:48 51°13.597 2°56.043 308.4 1.2 306 9.5
2004-06-01 07:37:52 51°13.597 2°56.042 308.7 1 305 9.4
2004-06-01 07:37:57 51°13.598 2°56.04 309.3 0.7 307 9.5
2004-06-01 07:38:02 51°13.599 2°56.039 309.9 0.9 306 9.5
2004-06-01 07:38:08 51°13.6 2°56.037 310.5 1 306 9.5
2004-06-01 07:38:12 51°13.601 2°56.035 310.8 1 306 9.5
2004-06-01 07:38:18 51°13.602 2°56.033 310.9 1 308 9.4
2004-06-01 07:38:23 51°13.602 2°56.031 311.2 1 306 9.4
2004-06-01 07:38:28 51°13.603 2°56.029 311.3 1 309 9.3
2004-06-01 07:38:33 51°13.604 2°56.027 311.4 1.1 307 9.2
2004-06-01 07:38:38 51°13.605 2°56.025 311.5 1.1 309 9.1
2004-06-01 07:38:42 51°13.606 2°56.024 311.6 1.1 307 9
2004-06-01 07:38:48 51°13.607 2°56.022 311.7 1 307 9
2004-06-01 07:38:52 51°13.608 2°56.02 311.7 1 306 9
2004-06-01 07:38:58 51°13.609 2°56.018 311.7 1 308 9
2004-06-01 07:39:03 51°13.61 2°56.017 311.7 0.9 308 9
2004-06-01 07:39:08 51°13.61 2°56.016 311.7 0.8 309 9
2004-06-01 07:39:12 51°13.611 2°56.015 311.7 0.4 307 9
2004-06-01 07:39:18 51°13.611 2°56.014 312.1 0.3 306 9
2004-06-01 07:39:23 51°13.611 2°56.014 312.6 0.2 312 9
2004-06-01 07:39:28 51°13.611 2°56.013 312.7 0.3 309 9.1
2004-06-01 07:39:32 51°13.611 2°56.012 312.7 0.3 306 9
2004-06-01 07:39:38 51°13.611 2°56.012 312.3 0.3 305 9
2004-06-01 07:39:42 51°13.611 2°56.012 312 0.3 305 9
2004-06-01 07:39:48 51°13.612 2°56.011 311.7 0.3 306 9.1
2004-06-01 07:39:53 51°13.612 2°56.011 311.3 0.3 307 9.1
2004-06-01 07:39:58 51°13.613 2°56.011 311 0.3 303 9.1
2004-06-01 07:40:02 51°13.613 2°56.01 310.7 0.4 303 9
2004-06-01 07:40:08 51°13.613 2°56.009 310.6 0.4 304 9.1
2004-06-01 07:40:12 51°13.614 2°56.008 310.3 0.4 305 9.1
2004-06-01 07:40:18 51°13.614 2°56.007 310 0.4 305 9.2
2004-06-01 07:40:22 51°13.614 2°56.006 309.8 0.4 305 9.2
2004-06-01 07:40:28 51°13.614 2°56.004 309.6 0.4 304 9.2
2004-06-01 07:40:33 51°13.614 2°56.003 309.5 0.4 305 9.2
2004-06-01 07:40:38 51°13.615 2°56.003 309.4 0.4 303 9.3
2004-06-01 07:40:42 51°13.615 2°56.003 309.4 0.3 305 9.3
2004-06-01 07:40:48 51°13.615 2°56.002 309.3 0.3 302 9.4
2004-06-01 07:40:52 51°13.615 2°56.001 309.2 0.3 302 9.6
2004-06-01 07:40:58 51°13.615 2°56.001 309.2 0.3 303 9.5
2004-06-01 07:41:02 51°13.615 2°56 309.2 0.4 321 9.6
2004-06-01 07:41:08 51°13.616 2°55.999 309.1 0.5 301 9.7
2004-06-01 07:41:12 51°13.616 2°55.998 309.1 0.7 301 9.7
2004-06-01 07:41:18 51°13.617 2°55.996 309.1 0.8 301 9.7
2004-06-01 07:41:22 51°13.617 2°55.994 309.1 1.2 302 9.8
2004-06-01 07:41:28 51°13.619 2°55.99 309.1 1.4 302 9.8
2004-06-01 07:41:32 51°13.62 2°55.987 308.9 2 302 9.8
2004-06-01 07:41:38 51°13.622 2°55.982 308.4 2.2 302 9.8
2004-06-01 07:41:42 51°13.624 2°55.978 308.1 2.5 302 9.9
2004-06-01 07:41:48 51°13.627 2°55.971 307.7 2.9 302 9.9
2004-06-01 07:41:52 51°13.629 2°55.966 307.7 3.5 302 10
2004-06-01 07:41:58 51°13.632 2°55.957 308 3.8 303 10
2004-06-01 07:42:00 51°13.634 2°55.954 308.5 4.1 303 10.2
2004-06-01 07:42:08 51°13.639 2°55.941 308.7 4.3 303 10.1
2004-06-01 07:42:13 51°13.642 2°55.934 308.6 4.3 303 9.9
2004-06-01 07:42:18 51°13.646 2°55.926 308.4 4.3 303 9.7
2004-06-01 07:42:23 51°13.649 2°55.918 308.4 4.2 303 9.7
2004-06-01 07:42:28 51°13.652 2°55.911 308.4 4.2 304 9.6
2004-06-01 07:42:33 51°13.655 2°55.903 308.4 4.1 304 9.6
2004-06-01 07:42:37 51°13.658 2°55.897 308.4 4.1 303 9.6
2004-06-01 07:42:40 51°13.659 2°55.892 308.3 4.2 304 9.6
2004-06-01 07:42:48 51°13.665 2°55.88 308.2 4.2 304 9.5
2004-06-01 07:42:52 51°13.668 2°55.874 308.4 4.2 304 9.6
2004-06-01 07:42:58 51°13.672 2°55.866 308.8 4.3 305 9.6
2004-06-01 07:43:02 51°13.674 2°55.859 309.2 4.3 306 9.7
2004-06-01 07:43:08 51°13.679 2°55.85 309.5 4.4 306 9.8
2004-06-01 07:43:12 51°13.682 2°55.844 309.9 4.4 307 9.9
2004-06-01 07:43:18 51°13.686 2°55.834 310.3 4.6 307 9.9
2004-06-01 07:43:21 51°13.689 2°55.829 310.6 4.8 307 9.9
2004-06-01 07:43:28 51°13.695 2°55.816 310.9 5.2 306 10.5
2004-06-01 07:43:32 51°13.698 2°55.808 310.9 5.6 306 11.4
2004-06-01 07:43:38 51°13.704 2°55.795 310.9 5.8 306 11.9
2004-06-01 07:43:43 51°13.709 2°55.784 311.5 6.2 308 12.8
2004-06-01 07:43:48 51°13.715 2°55.773 312.6 6.3 308 12.3
2004-06-01 07:43:52 51°13.72 2°55.764 313.9 6.8 310 12.2
2004-06-01 07:43:58 51°13.728 2°55.75 315.4 7 311 11.2
2004-06-01 07:44:03 51°13.735 2°55.739 317.3 7.2 314 10
2004-06-01 07:44:08 51°13.742 2°55.727 319.7 7.3 315 10
2004-06-01 07:44:13 51°13.75 2°55.716 321.5 7.6 318 9.3
2004-06-01 07:44:18 51°13.759 2°55.705 323.7 7.7 320 9.4
2004-06-01 07:44:22 51°13.766 2°55.697 325.9 7.8 322 9.7
2004-06-01 07:44:28 51°13.777 2°55.685 328.2 7.9 326 9.5
2004-06-01 07:44:32 51°13.784 2°55.677 330.8 8 327 9.5
2004-06-01 07:44:36 51°13.792 2°55.67 333.3 8.1 329 9.6
2004-06-01 07:44:43 51°13.806 2°55.658 334.9 8.1 331 9.8
2004-06-01 07:44:48 51°13.816 2°55.65 337.4 8.2 335 9.9
2004-06-01 07:44:52 51°13.825 2°55.644 339.7 8.2 336 10
2004-06-01 07:44:58 51°13.837 2°55.636 342.2 8.2 337 10
2004-06-01 07:45:02 51°13.846 2°55.63 343.2 8.3 337 10
2004-06-01 07:45:08 51°13.859 2°55.622 343.6 8.4 339 9.6
2004-06-01 07:45:13 51°13.87 2°55.616 344.8 8.4 339 9.9
2004-06-01 07:45:18 51°13.881 2°55.609 345.4 8.4 339 9.8
2004-06-01 07:45:23 51°13.893 2°55.603 345.5 8.5 340 9.9
2004-06-01 07:45:28 51°13.904 2°55.597 346 8.5 341 9.8
2004-06-01 07:45:32 51°13.913 2°55.592 346.4 8.6 340 9.9
2004-06-01 07:45:38 51°13.926 2°55.584 346.3 8.6 340 10
2004-06-01 07:45:42 51°13.935 2°55.579 346.1 8.6 340 10.4
2004-06-01 07:45:48 51°13.949 2°55.571 346 8.6 340 10.7
2004-06-01 07:45:52 51°13.958 2°55.566 346 8.7 340 10.8
2004-06-01 07:45:58 51°13.971 2°55.558 346.1 8.7 341 10.8
2004-06-01 07:46:02 51°13.98 2°55.554 346.7 8.7 341 11.3
2004-06-01 07:46:08 51°13.994 2°55.546 347.3 8.7 342 11.8
2004-06-01 07:46:13 51°14.006 2°55.54 347.6 8.8 342 11.3
2004-06-01 07:46:18 51°14.017 2°55.534 347.8 8.8 342 11.3
2004-06-01 07:46:22 51°14.027 2°55.529 347.1 8.8 341 11.2
2004-06-01 07:46:28 51°14.04 2°55.521 346.2 8.9 340 12
2004-06-01 07:46:32 51°14.049 2°55.515 344.8 8.9 337 11.9
2004-06-01 07:46:38 51°14.063 2°55.504 342.2 9 334 11.9
2004-06-01 07:46:42 51°14.072 2°55.496 338.7 9.1 331 11.8
2004-06-01 07:46:48 51°14.085 2°55.483 336.1 9.2 330 11.3
2004-06-01 07:46:52 51°14.094 2°55.475 335.4 9.4 329 11.4
2004-06-01 07:46:58 51°14.107 2°55.46 334.2 9.5 327 11.5
2004-06-01 07:47:02 51°14.116 2°55.45 331.6 9.7 324 11.7
2004-06-01 07:47:08 51°14.129 2°55.435 330.9 9.9 324 11.6
2004-06-01 07:47:12 51°14.138 2°55.425 330.2 10 323 11.6
2004-06-01 07:47:18 51°14.151 2°55.408 328.7 10 323 11.9
2004-06-01 07:47:22 51°14.16 2°55.397 327.3 10.1 321 11.8
2004-06-01 07:47:28 51°14.173 2°55.38 326.8 10.1 321 11.7
2004-06-01 07:47:32 51°14.182 2°55.369 326.8 10.2 321 11.7
2004-06-01 07:47:38 51°14.195 2°55.351 326.4 10.2 320 11.7
2004-06-01 07:47:42 51°14.204 2°55.339 324.9 10.3 319 11.6
2004-06-01 07:47:48 51°14.216 2°55.321 323.9 10.3 318 11.7
2004-06-01 07:47:52 51°14.225 2°55.309 323.7 10.3 317 11.7
2004-06-01 07:47:58 51°14.237 2°55.289 322.2 10.3 315 11.5
2004-06-01 07:48:03 51°14.247 2°55.273 320.8 10.3 315 11.6
2004-06-01 07:48:08 51°14.256 2°55.257 319.8 10.3 314 11.4
2004-06-01 07:48:12 51°14.264 2°55.243 318.7 10.3 312 11.9
2004-06-01 07:48:18 51°14.275 2°55.222 317.5 10.4 311 11.4
2004-06-01 07:48:23 51°14.285 2°55.204 316.4 10.5 310 11.3
2004-06-01 07:48:26 51°14.29 2°55.194 315.7 10.6 310 11.6
2004-06-01 07:48:33 51°14.304 2°55.168 315.7 10.7 310 11.3
2004-06-01 07:48:37 51°14.311 2°55.154 315.3 10.8 310 11.5
2004-06-01 07:48:41 51°14.319 2°55.139 315.2 10.9 310 11.3
2004-06-01 07:48:48 51°14.334 2°55.113 315.4 11.1 311 11.2
2004-06-01 07:48:52 51°14.342 2°55.098 316.8 11.2 313 11.1
2004-06-01 07:48:58 51°14.355 2°55.076 318.1 11.3 313 10.9
2004-06-01 07:49:02 51°14.364 2°55.062 318.2 11.4 313 11.2
2004-06-01 07:49:08 51°14.378 2°55.04 318.8 11.6 316 11.3
2004-06-01 07:49:12 51°14.387 2°55.026 320.6 11.7 316 11.4
2004-06-01 07:49:18 51°14.401 2°55.004 321.1 11.7 315 11.6
2004-06-01 07:49:23 51°14.412 2°54.985 320.9 11.8 314 11.3
2004-06-01 07:49:28 51°14.423 2°54.965 318.9 11.8 313 11.2
2004-06-01 07:49:32 51°14.431 2°54.948 315.3 12.1 307 11.3
2004-06-01 07:49:37 51°14.44 2°54.925 311.8 12.3 304 11
2004-06-01 07:49:42 51°14.448 2°54.9 307.8 12.5 300 10.9
2004-06-01 07:49:48 51°14.457 2°54.869 303.3 12.6 296 11
2004-06-01 07:49:52 51°14.461 2°54.847 298.9 12.9 289 10.9
2004-06-01 07:49:58 51°14.467 2°54.814 295.3 13 287 10.9
2004-06-01 07:50:03 51°14.471 2°54.786 291.5 13.1 281 11.1
2004-06-01 07:50:08 51°14.473 2°54.757 286.5 13.2 279 10.8
2004-06-01 07:50:12 51°14.474 2°54.733 283 13.3 274 10.9
2004-06-01 07:50:18 51°14.474 2°54.698 279.2 13.3 272 11
2004-06-01 07:50:20 51°14.473 2°54.686 274.9 13.4 267 10.9
2004-06-01 07:50:28 51°14.469 2°54.639 270.9 13.4 264 11.3
2004-06-01 07:50:33 51°14.465 2°54.61 267.4 13.4 257 10.9
2004-06-01 07:50:38 51°14.46 2°54.581 261.6 13.5 255 10.8
2004-06-01 07:50:42 51°14.455 2°54.559 258.9 13.5 251 10.9
2004-06-01 07:50:48 51°14.447 2°54.525 256 13.6 251 10.9
2004-06-01 07:50:52 51°14.441 2°54.503 253.7 13.6 248 10.9
2004-06-01 07:50:58 51°14.432 2°54.469 252.3 13.7 247 10.8
2004-06-01 07:51:02 51°14.426 2°54.447 251.2 13.7 247 10.6
2004-06-01 07:51:06 51°14.419 2°54.425 250.3 13.8 245 10.4
2004-06-01 07:51:12 51°14.409 2°54.392 249.8 13.8 243 9.9
2004-06-01 07:51:18 51°14.398 2°54.36 248 13.7 242 9.8
2004-06-01 07:51:22 51°14.391 2°54.339 246.6 13.6 241 9.8
2004-06-01 07:51:28 51°14.379 2°54.308 245.3 13.7 240 9.7
2004-06-01 07:51:32 51°14.372 2°54.287 244.5 13.7 239 9.6
2004-06-01 07:51:38 51°14.36 2°54.255 243.2 13.8 238 9.6
2004-06-01 07:51:41 51°14.354 2°54.24 243.2 13.8 240 9.6
2004-06-01 07:51:48 51°14.34 2°54.203 243.1 13.8 240 9.5
2004-06-01 07:51:52 51°14.332 2°54.182 243.1 13.8 239 9.5
2004-06-01 07:51:58 51°14.321 2°54.15 243.3 13.9 239 9.5
2004-06-01 07:52:03 51°14.31 2°54.124 243.4 13.9 240 9.6
2004-06-01 07:52:08 51°14.301 2°54.097 243.5 13.9 241 9.5
2004-06-01 07:52:13 51°14.292 2°54.07 244.5 13.9 241 9.5
2004-06-01 07:52:18 51°14.282 2°54.043 245 14 241 9.5
2004-06-01 07:52:23 51°14.273 2°54.016 245.8 13.9 242 9.4
2004-06-01 07:52:28 51°14.264 2°53.989 246 14 242 9.5
2004-06-01 07:52:33 51°14.255 2°53.961 246.5 13.9 243 9.4
2004-06-01 07:52:38 51°14.246 2°53.934 246.7 14 242 9.4
2004-06-01 07:52:43 51°14.237 2°53.907 246.6 14 241 9.5
2004-06-01 07:52:48 51°14.228 2°53.879 246.1 14 242 9.5
2004-06-01 07:52:53 51°14.219 2°53.852 246.1 14 242 9.5
2004-06-01 07:52:58 51°14.21 2°53.824 246.1 14 242 9.5
2004-06-01 07:53:02 51°14.202 2°53.803 246.3 14.1 242 9.5
2004-06-01 07:53:08 51°14.191 2°53.769 246.3 14.1 242 9.6
2004-06-01 07:53:12 51°14.184 2°53.748 246.6 14.1 241 9.6
2004-06-01 07:53:18 51°14.173 2°53.715 246.3 14.1 242 9.6
2004-06-01 07:53:23 51°14.163 2°53.687 246.1 14.1 241 9.6
2004-06-01 07:53:28 51°14.154 2°53.66 245.9 14.1 242 9.6
2004-06-01 07:53:33 51°14.145 2°53.632 246.3 14.1 242 9.7
2004-06-01 07:53:38 51°14.136 2°53.605 246.4 14.1 243 9.7
2004-06-01 07:53:42 51°14.129 2°53.583 246.7 14.1 243 9.7
2004-06-01 07:53:48 51°14.118 2°53.549 247.2 14.1 243 9.8
2004-06-01 07:53:52 51°14.111 2°53.527 247.4 14.1 242 9.8
2004-06-01 07:53:57 51°14.102 2°53.499 246.9 14.1 242 9.8
2004-06-01 07:54:02 51°14.092 2°53.472 246.6 14.1 242 9.8
2004-06-01 07:54:07 51°14.083 2°53.444 246.5 14.1 242 9.9
2004-06-01 07:54:12 51°14.074 2°53.417 246.5 14.1 242 9.9
2004-06-01 07:54:16 51°14.067 2°53.395 246.5 14.1 242 9.9
2004-06-01 07:54:21 51°14.057 2°53.367 246.5 14.1 242 9.9
2004-06-01 07:54:28 51°14.044 2°53.328 246.4 14.2 242 9.9
2004-06-01 07:54:33 51°14.035 2°53.301 246.4 14.1 242 10
2004-06-01 07:54:37 51°14.028 2°53.279 246.6 14.2 242 10.1
2004-06-01 07:54:42 51°14.019 2°53.251 246.8 14.1 243 10.1
2004-06-01 07:54:47 51°14.01 2°53.223 246.8 14.2 243 10.1
2004-06-01 07:54:52 51°14.001 2°53.195 246.9 14.2 243 10.2
2004-06-01 07:54:58 51°13.99 2°53.162 247.5 14.2 243 10.2
2004-06-01 07:55:02 51°13.983 2°53.14 247.4 14.2 242 10.2
2004-06-01 07:55:08 51°13.971 2°53.107 246.3 14.2 240 10.3
2004-06-01 07:55:13 51°13.961 2°53.08 244.8 14.2 240 10.3
2004-06-01 07:55:16 51°13.954 2°53.065 243.2 14.2 238 10.4
2004-06-01 07:55:22 51°13.942 2°53.033 242.5 14.2 238 10.4
2004-06-01 07:55:28 51°13.929 2°53.001 241.6 14.2 237 10.4
2004-06-01 07:55:33 51°13.918 2°52.975 241.6 14.2 237 10.5
2004-06-01 07:55:36 51°13.912 2°52.959 241.3 14.2 237 10.5
2004-06-01 07:55:42 51°13.899 2°52.928 241.3 14.2 237 10.5
2004-06-01 07:55:48 51°13.886 2°52.896 241.2 14.2 237 10.6
2004-06-01 07:55:52 51°13.878 2°52.875 241.2 14.2 237 10.5
2004-06-01 07:55:57 51°13.867 2°52.848 241.6 14.2 237 10.5
2004-06-01 07:56:02 51°13.857 2°52.822 241.6 14.2 237 10.6
2004-06-01 07:56:08 51°13.844 2°52.79 241.6 14.2 237 10.6
2004-06-01 07:56:12 51°13.836 2°52.769 242 14.1 238 10.6
2004-06-01 07:56:18 51°13.823 2°52.737 241.8 14.2 237 10.6
2004-06-01 07:56:22 51°13.814 2°52.716 241.6 14.2 237 10.6
2004-06-01 07:56:28 51°13.802 2°52.684 242 14.2 238 10.6
2004-06-01 07:56:32 51°13.793 2°52.663 241.7 14.2 238 10.6
2004-06-01 07:56:38 51°13.781 2°52.631 241.6 14.2 237 10.6
2004-06-01 07:56:42 51°13.772 2°52.61 242.1 14.1 238 10.6
2004-06-01 07:56:48 51°13.76 2°52.578 241.7 14.2 237 10.7
2004-06-01 07:56:52 51°13.752 2°52.557 242.3 14.1 238 10.7
2004-06-01 07:56:58 51°13.739 2°52.526 242.4 14.1 237 10.6
2004-06-01 07:57:03 51°13.728 2°52.499 241.5 14.2 238 10.6
2004-06-01 07:57:08 51°13.718 2°52.473 242.4 14.2 238 10.7
2004-06-01 07:57:12 51°13.709 2°52.451 241.8 14.2 238 10.8
2004-06-01 07:57:18 51°13.697 2°52.419 241.7 14.2 238 10.8
2004-06-01 07:57:22 51°13.689 2°52.398 242.3 14.2 238 10.8
2004-06-01 07:57:28 51°13.677 2°52.366 242.5 14.2 239 10.8
2004-06-01 07:57:33 51°13.667 2°52.339 243.1 14.2 239 10.8
2004-06-01 07:57:37 51°13.659 2°52.317 243.8 14.2 240 10.8
2004-06-01 07:57:42 51°13.649 2°52.29 244.2 14.2 240 10.8
2004-06-01 07:57:48 51°13.637 2°52.257 244.5 14.2 240 10.9
2004-06-01 07:57:52 51°13.629 2°52.235 244.5 14.2 240 10.9
2004-06-01 07:57:58 51°13.617 2°52.203 244.2 14.3 239 10.9
2004-06-01 07:58:02 51°13.609 2°52.181 244 14.3 240 10.9
2004-06-01 07:58:08 51°13.597 2°52.149 243.9 14.2 239 10.9
2004-06-01 07:58:13 51°13.587 2°52.122 243.8 14.2 240 10.9
2004-06-01 07:58:16 51°13.581 2°52.106 243.6 14.2 239 11
2004-06-01 07:58:22 51°13.569 2°52.073 243.5 14.2 240 11
2004-06-01 07:58:28 51°13.557 2°52.04 243.7 14.2 239 10.9
2004-06-01 07:58:33 51°13.547 2°52.013 243.9 14.3 240 11
2004-06-01 07:58:36 51°13.541 2°51.997 244.5 14.2 240 11
2004-06-01 07:58:42 51°13.529 2°51.964 244.5 14.2 240 11
2004-06-01 07:58:47 51°13.519 2°51.937 244.4 14.2 241 11
2004-06-01 07:58:52 51°13.509 2°51.91 244.3 14.3 239 11
2004-06-01 07:58:57 51°13.499 2°51.883 244.1 14.2 240 11
2004-06-01 07:59:02 51°13.489 2°51.856 243.8 14.3 238 11
2004-06-01 07:59:08 51°13.477 2°51.823 243.8 14.3 241 11
2004-06-01 07:59:12 51°13.469 2°51.801 244.1 14.2 240 11
2004-06-01 07:59:18 51°13.458 2°51.768 244.5 14.3 240 10.9
2004-06-01 07:59:22 51°13.45 2°51.747 244.8 14.2 241 11
2004-06-01 07:59:28 51°13.438 2°51.714 244.8 14.2 240 11
2004-06-01 07:59:33 51°13.428 2°51.687 244.3 14.3 240 11.1
2004-06-01 07:59:38 51°13.418 2°51.66 244.5 14.2 240 11
2004-06-01 07:59:42 51°13.41 2°51.638 244.3 14.2 239 11
2004-06-01 07:59:48 51°13.398 2°51.605 243.7 14.3 239 11
2004-06-01 07:59:53 51°13.388 2°51.579 244.7 14.1 239 11
2004-06-01 07:59:58 51°13.378 2°51.551 244.2 14.2 239 11
2004-06-01 08:00:02 51°13.371 2°51.53 244 14.1 241 11.1
2004-06-01 08:00:08 51°13.359 2°51.497 245 14.1 240 11
2004-06-01 08:00:13 51°13.349 2°51.47 244.4 14.2 241 11.1
2004-06-01 08:00:18 51°13.339 2°51.443 244.6 14.2 240 11.1
2004-06-01 08:00:20 51°13.335 2°51.432 244.5 14.2 240 11.1
2004-06-01 08:00:28 51°13.319 2°51.389 244.5 14.2 240 11.1
2004-06-01 08:00:32 51°13.311 2°51.367 243.8 14.1 240 11.1
2004-06-01 08:00:38 51°13.299 2°51.335 243.8 14.2 239 11.1
2004-06-01 08:00:42 51°13.292 2°51.313 243.8 14.2 240 11.1
2004-06-01 08:00:48 51°13.279 2°51.281 244 14.1 239 11.1
2004-06-01 08:00:53 51°13.269 2°51.254 244 14.2 240 11.1
2004-06-01 08:00:58 51°13.26 2°51.227 244.4 14.2 240 11.1
2004-06-01 08:01:02 51°13.252 2°51.205 244.4 14.1 240 11.1
2004-06-01 08:01:08 51°13.24 2°51.173 244.3 14.2 240 11.1
2004-06-01 08:01:13 51°13.23 2°51.146 244.7 14.1 240 11.2
2004-06-01 08:01:18 51°13.22 2°51.118 244.7 14.1 240 11.2
2004-06-01 08:01:21 51°13.214 2°51.102 244.2 14.2 239 11.2
2004-06-01 08:01:28 51°13.201 2°51.065 244.4 14.2 239 11.2
2004-06-01 08:01:32 51°13.193 2°51.043 244.2 14.2 240 11.2
2004-06-01 08:01:38 51°13.181 2°51.011 244.2 14.1 239 11.2
2004-06-01 08:01:42 51°13.173 2°50.989 243.6 14.2 239 11.2
2004-06-01 08:01:48 51°13.161 2°50.957 243.7 14.2 240 11.2
2004-06-01 08:01:52 51°13.152 2°50.936 243.8 14.1 238 11.3
2004-06-01 08:01:58 51°13.141 2°50.903 243.1 14.2 240 11.3
2004-06-01 08:02:02 51°13.132 2°50.882 244.2 14.1 239 11.3
2004-06-01 08:02:07 51°13.123 2°50.855 243.6 14.2 239 11.3
2004-06-01 08:02:12 51°13.113 2°50.828 244.1 14.1 239 11.2
2004-06-01 08:02:16 51°13.105 2°50.806 244.2 14.2 239 11.3
2004-06-01 08:02:22 51°13.093 2°50.774 244.2 14.1 241 11.3
2004-06-01 08:02:28 51°13.081 2°50.741 244.3 14.1 239 11.3
2004-06-01 08:02:32 51°13.073 2°50.72 244.4 14.1 239 11.3
2004-06-01 08:02:37 51°13.064 2°50.693 244.4 14.1 240 11.3
2004-06-01 08:02:42 51°13.054 2°50.666 244.7 14.1 240 11.3
2004-06-01 08:02:47 51°13.044 2°50.638 244.8 14.1 241 11.4
2004-06-01 08:02:52 51°13.034 2°50.612 244.7 14.1 240 11.4
2004-06-01 08:02:56 51°13.026 2°50.59 244.6 14.2 240 11.3
2004-06-01 08:03:02 51°13.014 2°50.558 244.3 14.2 239 11.4
2004-06-01 08:03:08 51°13.002 2°50.526 243.8 14.1 239 11.4
2004-06-01 08:03:13 51°12.991 2°50.5 242.5 14.1 237 11.4
2004-06-01 08:03:18 51°12.981 2°50.474 241.8 14.2 237 11.4
2004-06-01 08:03:23 51°12.969 2°50.448 241.2 14.1 236 11.4
2004-06-01 08:03:28 51°12.958 2°50.422 240.4 14.1 236 11.4
2004-06-01 08:03:32 51°12.95 2°50.401 240.4 14.1 237 11.4
2004-06-01 08:03:38 51°12.937 2°50.37 240.9 14.1 236 11.4
2004-06-01 08:03:42 51°12.928 2°50.349 240.7 14.2 237 11.4
2004-06-01 08:03:48 51°12.915 2°50.318 241.3 14.1 237 11.4
2004-06-01 08:03:52 51°12.906 2°50.297 240.9 14.2 236 11.4
2004-06-01 08:03:58 51°12.894 2°50.266 241.2 14.2 237 11.4
2004-06-01 08:04:02 51°12.885 2°50.245 241.5 14.1 236 11.4
2004-06-01 08:04:08 51°12.872 2°50.214 240.8 14.2 236 11.4
2004-06-01 08:04:12 51°12.864 2°50.193 241.4 14 237 11.4
2004-06-01 08:04:18 51°12.85 2°50.162 240.9 14.1 235 11.4
2004-06-01 08:04:23 51°12.839 2°50.136 240 14.2 237 11.4
2004-06-01 08:04:28 51°12.828 2°50.111 240.2 14.1 235 11.4
2004-06-01 08:04:32 51°12.819 2°50.091 238.6 14.2 235 11.3
2004-06-01 08:04:38 51°12.805 2°50.06 238.6 14.1 234 11.3
2004-06-01 08:04:42 51°12.796 2°50.04 238.3 14.1 234 11.4
2004-06-01 08:04:48 51°12.782 2°50.01 237.7 14.1 233 11.4
2004-06-01 08:04:52 51°12.772 2°49.99 237.7 14.1 233 11.3
2004-06-01 08:04:58 51°12.759 2°49.96 237.8 14.1 235 11.4
2004-06-01 08:05:02 51°12.749 2°49.94 238.1 14.1 233 11.4
2004-06-01 08:05:08 51°12.736 2°49.91 237.7 14.2 234 11.4
2004-06-01 08:05:12 51°12.726 2°49.89 238.2 14 233 11.4
2004-06-01 08:05:17 51°12.715 2°49.864 237.6 14.1 234 11.3
2004-06-01 08:05:22 51°12.703 2°49.839 238 14.1 234 11.4
2004-06-01 08:05:28 51°12.69 2°49.809 238 14.1 234 11.4
2004-06-01 08:05:32 51°12.681 2°49.789 238.2 14.1 236 11.4
2004-06-01 08:05:38 51°12.668 2°49.758 239.6 14.1 236 11.4
2004-06-01 08:05:42 51°12.66 2°49.736 240.9 14.1 238 11.4
2004-06-01 08:05:48 51°12.648 2°49.705 242.3 14 238 11.4
2004-06-01 08:05:52 51°12.64 2°49.683 242.7 14.1 240 11.4
2004-06-01 08:05:58 51°12.628 2°49.651 243.3 14 239 11.4
2004-06-01 08:06:02 51°12.62 2°49.63 243.5 14 240 11.4
2004-06-01 08:06:08 51°12.608 2°49.598 243.5 14.1 240 11.3
2004-06-01 08:06:12 51°12.6 2°49.576 243.7 14 240 11.4
2004-06-01 08:06:18 51°12.588 2°49.544 243.8 14 239 11.4
2004-06-01 08:06:22 51°12.58 2°49.523 243.8 14 240 11.4
2004-06-01 08:06:28 51°12.568 2°49.491 243.3 14 239 11.4
2004-06-01 08:06:32 51°12.56 2°49.47 243.1 14 239 11.4
2004-06-01 08:06:38 51°12.549 2°49.438 243.1 14 239 11.4
2004-06-01 08:06:42 51°12.541 2°49.417 243.3 14 240 11.4
2004-06-01 08:06:47 51°12.531 2°49.39 243.8 14 239 11.4
2004-06-01 08:06:52 51°12.521 2°49.364 243.8 14 240 11.4
2004-06-01 08:06:56 51°12.513 2°49.343 243.4 14 238 11.4
2004-06-01 08:07:02 51°12.501 2°49.31 243.1 14 239 11.4
2004-06-01 08:07:08 51°12.489 2°49.279 243.1 14 238 11.4
2004-06-01 08:07:12 51°12.481 2°49.258 242.9 14 239 11.4
2004-06-01 08:07:18 51°12.469 2°49.226 243.1 14 239 11.4
2004-06-01 08:07:21 51°12.463 2°49.21 243.3 14 240 11.3
2004-06-01 08:07:28 51°12.449 2°49.173 243.8 14 240 11.4
2004-06-01 08:07:32 51°12.441 2°49.151 243.9 14 240 11.4
2004-06-01 08:07:38 51°12.429 2°49.12 243.8 13.9 239 11.4
2004-06-01 08:07:42 51°12.421 2°49.098 243.5 13.9 239 11.4
2004-06-01 08:07:48 51°12.41 2°49.067 243.5 14 239 11.3
2004-06-01 08:07:52 51°12.402 2°49.045 243.6 13.9 239 11.4
2004-06-01 08:07:58 51°12.39 2°49.014 243.5 13.9 240 11.4
2004-06-01 08:08:02 51°12.382 2°48.993 243.5 13.9 239 11.3
2004-06-01 08:08:08 51°12.37 2°48.961 243.2 14 239 11.4
2004-06-01 08:08:12 51°12.362 2°48.94 243.2 13.8 238 11.4
2004-06-01 08:08:18 51°12.35 2°48.909 242.7 13.9 239 11.4
2004-06-01 08:08:22 51°12.342 2°48.887 242.7 13.9 239 11.4
2004-06-01 08:08:28 51°12.33 2°48.856 243.2 13.9 239 11.4
2004-06-01 08:08:32 51°12.322 2°48.835 243.2 13.9 239 11.4
2004-06-01 08:08:38 51°12.31 2°48.803 243.4 13.9 240 11.4
2004-06-01 08:08:40 51°12.307 2°48.792 243.8 13.8 240 11.4
2004-06-01 08:08:48 51°12.291 2°48.75 243.6 13.8 239 11.4
2004-06-01 08:08:52 51°12.283 2°48.729 243.4 13.9 240 11.4
2004-06-01 08:08:58 51°12.271 2°48.697 243.8 13.9 239 11.4
2004-06-01 08:09:02 51°12.264 2°48.676 243.8 13.9 239 11.4
2004-06-01 08:09:08 51°12.252 2°48.645 243.5 13.9 239 11.4
2004-06-01 08:09:13 51°12.242 2°48.619 243.3 13.8 238 11.4
2004-06-01 08:09:18 51°12.232 2°48.592 243.1 13.8 239 11.4
2004-06-01 08:09:22 51°12.224 2°48.571 243 13.9 239 11.4
2004-06-01 08:09:28 51°12.212 2°48.54 243.5 13.9 240 11.5
2004-06-01 08:09:32 51°12.204 2°48.519 243.3 13.8 239 11.4
2004-06-01 08:09:38 51°12.192 2°48.487 243 13.9 239 11.4
2004-06-01 08:09:41 51°12.186 2°48.472 243.1 13.9 239 11.4
2004-06-01 08:09:48 51°12.173 2°48.435 243.2 13.8 239 11.4
2004-06-01 08:09:52 51°12.165 2°48.414 243.1 13.8 239 11.4
2004-06-01 08:09:58 51°12.153 2°48.382 243.1 13.9 239 11.4
2004-06-01 08:10:02 51°12.145 2°48.361 243.7 13.8 239 11.5
2004-06-01 08:10:08 51°12.133 2°48.33 243.1 13.8 238 11.4
2004-06-01 08:10:13 51°12.124 2°48.303 243.1 13.9 240 11.4
2004-06-01 08:10:18 51°12.114 2°48.277 243.8 13.8 240 11.4
2004-06-01 08:10:23 51°12.104 2°48.251 243.8 13.8 239 11.4
2004-06-01 08:10:28 51°12.094 2°48.225 243.1 13.8 238 11.4
2004-06-01 08:10:33 51°12.084 2°48.198 243.4 13.9 239 11.4
2004-06-01 08:10:38 51°12.075 2°48.172 243.6 13.8 240 11.4
2004-06-01 08:10:42 51°12.067 2°48.151 243.7 13.9 239 11.4
2004-06-01 08:10:48 51°12.055 2°48.119 243.5 13.8 240 11.4
2004-06-01 08:10:52 51°12.047 2°48.099 243.5 13.8 239 11.4
2004-06-01 08:10:58 51°12.036 2°48.067 243.1 13.8 239 11.4
2004-06-01 08:11:02 51°12.027 2°48.047 242.9 13.8 238 11.4
2004-06-01 08:11:08 51°12.016 2°48.015 242.9 13.8 239 11.4
2004-06-01 08:11:12 51°12.008 2°47.994 243.1 13.8 238 11.3
2004-06-01 08:11:17 51°11.998 2°47.968 243.1 13.8 239 11.3
2004-06-01 08:11:22 51°11.988 2°47.942 243.1 13.8 239 11.3
2004-06-01 08:11:28 51°11.976 2°47.911 243.1 13.8 239 11.3
2004-06-01 08:11:32 51°11.968 2°47.89 243.1 13.8 239 11.3
2004-06-01 08:11:37 51°11.959 2°47.864 243.5 13.8 239 11.3
2004-06-01 08:11:42 51°11.949 2°47.837 243.5 13.8 239 11.3
2004-06-01 08:11:48 51°11.938 2°47.806 243.8 13.8 240 11.3
2004-06-01 08:11:53 51°11.929 2°47.779 244.6 13.8 242 11.2
2004-06-01 08:11:58 51°11.919 2°47.753 245.3 13.8 241 11.2
2004-06-01 08:12:02 51°11.913 2°47.731 246 13.8 243 11.3
2004-06-01 08:12:08 51°11.902 2°47.699 246.6 13.7 242 11.2
2004-06-01 08:12:12 51°11.895 2°47.677 246.9 13.8 242 11.2
2004-06-01 08:12:18 51°11.885 2°47.644 247 13.8 243 11.2
2004-06-01 08:12:22 51°11.878 2°47.623 247.5 13.7 242 11.2
2004-06-01 08:12:28 51°11.867 2°47.59 247.2 13.8 242 11.2
2004-06-01 08:12:33 51°11.858 2°47.564 247.2 13.7 242 11.2
2004-06-01 08:12:38 51°11.85 2°47.537 246.7 13.7 242 11.1
2004-06-01 08:12:42 51°11.842 2°47.516 246.5 13.7 242 11.1
2004-06-01 08:12:48 51°11.832 2°47.483 246.5 13.7 242 11.1
2004-06-01 08:12:53 51°11.823 2°47.457 246.7 13.8 242 11.1
2004-06-01 08:12:58 51°11.814 2°47.43 246.6 13.7 243 11.1
2004-06-01 08:13:02 51°11.807 2°47.408 246.7 13.7 242 11.1
2004-06-01 08:13:08 51°11.796 2°47.376 246.7 13.7 243 11.1
2004-06-01 08:13:13 51°11.787 2°47.349 247 13.7 241 11.1
2004-06-01 08:13:18 51°11.778 2°47.322 246.5 13.7 243 11.1
2004-06-01 08:13:22 51°11.771 2°47.301 246.4 13.8 241 11.1
2004-06-01 08:13:28 51°11.76 2°47.269 246 13.8 242 11.1
2004-06-01 08:13:33 51°11.752 2°47.242 246.6 13.7 242 11.1
2004-06-01 08:13:38 51°11.743 2°47.215 246.7 13.8 242 11
2004-06-01 08:13:42 51°11.736 2°47.193 246.6 13.7 242 11
2004-06-01 08:13:48 51°11.725 2°47.161 246.3 13.7 242 10.9
2004-06-01 08:13:53 51°11.716 2°47.134 246.2 13.7 243 10.9
2004-06-01 08:13:58 51°11.707 2°47.108 246.5 13.7 242 10.9
2004-06-01 08:14:02 51°11.7 2°47.086 246.5 13.7 242 10.9
2004-06-01 08:14:08 51°11.689 2°47.054 246.4 13.7 242 10.9
2004-06-01 08:14:13 51°11.68 2°47.028 246 13.7 242 10.9
2004-06-01 08:14:18 51°11.671 2°47.001 245.9 13.7 242 10.8
2004-06-01 08:14:23 51°11.663 2°46.974 245.8 13.7 242 10.8
2004-06-01 08:14:28 51°11.654 2°46.948 246.4 13.6 243 10.8
2004-06-01 08:14:33 51°11.645 2°46.921 246.3 13.7 243 10.9
2004-06-01 08:14:38 51°11.636 2°46.895 246.8 13.6 243 10.8
2004-06-01 08:14:42 51°11.629 2°46.873 246.7 13.6 241 10.8
2004-06-01 08:14:48 51°11.619 2°46.841 246.4 13.7 243 10.8
2004-06-01 08:14:52 51°11.612 2°46.82 246.6 13.6 242 10.8
2004-06-01 08:14:58 51°11.601 2°46.788 246.3 13.7 243 10.8
2004-06-01 08:15:02 51°11.594 2°46.766 246.5 13.6 242 10.8
2004-06-01 08:15:08 51°11.583 2°46.734 246.5 13.6 243 10.8
2004-06-01 08:15:13 51°11.575 2°46.707 246.7 13.7 243 10.8
2004-06-01 08:15:18 51°11.566 2°46.681 247.1 13.6 243 10.8
2004-06-01 08:15:22 51°11.559 2°46.659 246.9 13.6 243 10.7
2004-06-01 08:15:28 51°11.549 2°46.627 246.8 13.6 243 10.8
2004-06-01 08:15:32 51°11.542 2°46.605 247.5 13.6 244 10.7
2004-06-01 08:15:38 51°11.533 2°46.573 248 13.6 244 10.8
2004-06-01 08:15:42 51°11.526 2°46.551 248.8 13.6 245 10.8
2004-06-01 08:15:48 51°11.517 2°46.518 249.5 13.6 245 10.8
2004-06-01 08:15:52 51°11.511 2°46.496 249.4 13.7 245 10.8
2004-06-01 08:15:57 51°11.502 2°46.469 249.5 13.6 245 10.9
2004-06-01 08:16:02 51°11.494 2°46.442 248.7 13.7 244 10.9
2004-06-01 08:16:08 51°11.484 2°46.409 248.9 13.7 246 10.9
2004-06-01 08:16:12 51°11.478 2°46.388 248.5 13.7 244 10.9
2004-06-01 08:16:17 51°11.47 2°46.36 248.2 13.6 245 10.9
2004-06-01 08:16:22 51°11.462 2°46.333 248.9 13.6 245 10.9
2004-06-01 08:16:28 51°11.453 2°46.299 249.5 13.7 247 10.9
2004-06-01 08:16:33 51°11.446 2°46.272 250.7 13.6 247 10.9
2004-06-01 08:16:38 51°11.439 2°46.244 251 13.6 247 11
2004-06-01 08:16:42 51°11.433 2°46.222 251.1 13.6 248 11
2004-06-01 08:16:48 51°11.424 2°46.188 251.6 13.7 248 11
2004-06-01 08:16:52 51°11.418 2°46.166 251.9 13.6 248 11.1
2004-06-01 08:16:58 51°11.41 2°46.133 251.7 13.7 248 11.1
2004-06-01 08:17:02 51°11.404 2°46.11 251.8 13.7 248 11.1
2004-06-01 08:17:08 51°11.395 2°46.077 252 13.6 247 11.1
2004-06-01 08:17:13 51°11.388 2°46.049 251.2 13.7 248 11.1
2004-06-01 08:17:18 51°11.381 2°46.022 251.5 13.6 248 11.1
2004-06-01 08:17:22 51°11.375 2°45.999 251.6 13.6 248 11.1
2004-06-01 08:17:28 51°11.367 2°45.966 251.6 13.6 248 11.1
2004-06-01 08:17:32 51°11.361 2°45.944 251.5 13.6 248 11.1
2004-06-01 08:17:38 51°11.352 2°45.91 251.9 13.6 247 11.1
2004-06-01 08:17:40 51°11.35 2°45.899 251.8 13.6 248 11.2
2004-06-01 08:17:48 51°11.338 2°45.855 251.4 13.6 247 11.2
2004-06-01 08:17:52 51°11.332 2°45.833 251.1 13.6 247 11.2
2004-06-01 08:17:58 51°11.322 2°45.8 251.3 13.5 246 11.2
2004-06-01 08:18:02 51°11.315 2°45.779 249.2 13.5 243 11.2
2004-06-01 08:18:08 51°11.305 2°45.747 247.4 13.6 243 11.1
2004-06-01 08:18:13 51°11.295 2°45.721 245.9 13.6 240 11.2
2004-06-01 08:18:18 51°11.286 2°45.696 244.5 13.5 240 11.1
2004-06-01 08:18:22 51°11.278 2°45.675 243.2 13.5 239 11.1
2004-06-01 08:18:28 51°11.267 2°45.644 243.1 13.5 240 11.1
2004-06-01 08:18:32 51°11.259 2°45.624 243.1 13.5 240 11.1
2004-06-01 08:18:38 51°11.248 2°45.593 243.4 13.5 239 11.1
2004-06-01 08:18:43 51°11.238 2°45.567 243.5 13.6 240 11
2004-06-01 08:18:48 51°11.229 2°45.541 243.8 13.5 240 11
2004-06-01 08:18:53 51°11.219 2°45.516 243.8 13.4 239 11
2004-06-01 08:18:58 51°11.21 2°45.49 243.3 13.5 239 10.9
2004-06-01 08:19:02 51°11.202 2°45.47 243.1 13.6 239 10.9
2004-06-01 08:19:08 51°11.191 2°45.439 243.4 13.5 240 10.8
2004-06-01 08:19:12 51°11.184 2°45.418 243.7 13.5 240 10.9
2004-06-01 08:19:18 51°11.172 2°45.387 244.2 13.4 241 10.8
2004-06-01 08:19:22 51°11.165 2°45.367 244.1 13.4 240 10.8
2004-06-01 08:19:28 51°11.154 2°45.336 243.8 13.6 239 10.8
2004-06-01 08:19:32 51°11.146 2°45.315 243.6 13.6 241 10.7
2004-06-01 08:19:38 51°11.135 2°45.284 244.4 13.4 240 10.7
2004-06-01 08:19:42 51°11.128 2°45.264 243.3 13.4 239 10.7
2004-06-01 08:19:48 51°11.116 2°45.233 243.2 13.4 241 10.7
2004-06-01 08:19:52 51°11.109 2°45.212 243.8 13.5 242 10.7
2004-06-01 08:19:58 51°11.098 2°45.181 244.6 13.4 241 10.7
2004-06-01 08:20:02 51°11.092 2°45.159 245 13.5 241 10.7
2004-06-01 08:20:08 51°11.081 2°45.128 246.3 13.4 242 10.6
2004-06-01 08:20:13 51°11.073 2°45.102 246.3 13.4 243 10.6
2004-06-01 08:20:18 51°11.065 2°45.075 247 13.5 244 10.6
2004-06-01 08:20:20 51°11.062 2°45.064 248.2 13.5 245 10.6
2004-06-01 08:20:28 51°11.05 2°45.021 249 13.4 246 10.7
2004-06-01 08:20:33 51°11.043 2°44.994 249.6 13.5 246 10.6
2004-06-01 08:20:38 51°11.036 2°44.967 250.3 13.5 247 10.6
2004-06-01 08:20:43 51°11.029 2°44.94 251 13.4 247 10.7
2004-06-01 08:20:48 51°11.022 2°44.913 250.7 13.4 246 10.6
2004-06-01 08:20:53 51°11.014 2°44.885 250.5 13.4 247 10.6
2004-06-01 08:20:58 51°11.007 2°44.858 250.8 13.4 247 10.7
2004-06-01 08:21:02 51°11.001 2°44.837 250.5 13.4 246 10.7
2004-06-01 08:21:08 51°10.993 2°44.804 250.2 13.5 247 10.6
2004-06-01 08:21:13 51°10.986 2°44.776 250.8 13.4 248 10.7
2004-06-01 08:21:18 51°10.979 2°44.749 251.8 13.4 249 10.7
2004-06-01 08:21:21 51°10.975 2°44.732 252.4 13.5 250 10.6
2004-06-01 08:21:28 51°10.966 2°44.693 253.3 13.5 250 10.7
2004-06-01 08:21:32 51°10.961 2°44.67 253.8 13.4 250 10.7
2004-06-01 08:21:38 51°10.954 2°44.637 254 13.4 251 10.7
2004-06-01 08:21:42 51°10.948 2°44.615 254 13.4 250 10.7
2004-06-01 08:21:48 51°10.941 2°44.581 253.7 13.4 250 10.7
2004-06-01 08:21:53 51°10.934 2°44.553 253.5 13.4 250 10.7
2004-06-01 08:21:58 51°10.928 2°44.526 253.5 13.4 250 10.7
2004-06-01 08:22:02 51°10.922 2°44.503 253.7 13.4 251 10.7
2004-06-01 08:22:08 51°10.915 2°44.47 253.9 13.4 250 10.7
2004-06-01 08:22:13 51°10.908 2°44.442 254 13.4 250 10.8
2004-06-01 08:22:18 51°10.902 2°44.414 253.8 13.5 251 10.8
2004-06-01 08:22:22 51°10.897 2°44.392 254.2 13.4 251 10.7
2004-06-01 08:22:28 51°10.89 2°44.358 254 13.4 250 10.7
2004-06-01 08:22:32 51°10.884 2°44.336 253.8 13.4 249 10.7
2004-06-01 08:22:37 51°10.878 2°44.308 253.3 13.4 251 10.8
2004-06-01 08:22:42 51°10.872 2°44.281 253.8 13.3 249 10.8
2004-06-01 08:22:48 51°10.864 2°44.247 253.2 13.4 250 10.8
2004-06-01 08:22:52 51°10.859 2°44.225 253.2 13.4 251 10.8
2004-06-01 08:22:58 51°10.851 2°44.192 253.8 13.3 250 10.8
2004-06-01 08:23:02 51°10.846 2°44.17 253.6 13.4 250 10.8
2004-06-01 08:23:08 51°10.839 2°44.137 253.5 13.3 250 10.8
2004-06-01 08:23:12 51°10.834 2°44.114 253.6 13.4 250 10.9
2004-06-01 08:23:18 51°10.826 2°44.081 253.9 13.3 250 10.8
2004-06-01 08:23:22 51°10.821 2°44.059 253.9 13.4 251 10.8
2004-06-01 08:23:28 51°10.813 2°44.025 253.8 13.4 250 10.8
2004-06-01 08:23:32 51°10.808 2°44.003 253.8 13.3 250 10.8
2004-06-01 08:23:38 51°10.801 2°43.97 253.6 13.3 249 10.9
2004-06-01 08:23:42 51°10.796 2°43.948 253.3 13.4 250 10.8
2004-06-01 08:23:48 51°10.788 2°43.914 253.6 13.4 250 10.8
2004-06-01 08:23:52 51°10.783 2°43.892 253.8 13.4 251 10.9
2004-06-01 08:23:58 51°10.776 2°43.859 254.1 13.3 250 10.9
2004-06-01 08:24:02 51°10.77 2°43.837 253.5 13.3 250 10.9
2004-06-01 08:24:08 51°10.763 2°43.804 253.5 13.4 250 10.9
2004-06-01 08:24:13 51°10.757 2°43.776 253.5 13.3 250 10.9
2004-06-01 08:24:17 51°10.752 2°43.754 253.7 13.3 250 10.9
2004-06-01 08:24:22 51°10.745 2°43.726 253.5 13.3 250 10.8
2004-06-01 08:24:28 51°10.737 2°43.693 253.3 13.3 250 10.9
2004-06-01 08:24:32 51°10.732 2°43.671 253 13.3 250 10.8
2004-06-01 08:24:38 51°10.725 2°43.638 253 13.3 249 10.9
2004-06-01 08:24:42 51°10.719 2°43.616 252.9 13.3 250 10.9
2004-06-01 08:24:48 51°10.712 2°43.583 253.3 13.3 250 10.8
2004-06-01 08:24:52 51°10.707 2°43.561 253.7 13.3 250 10.8
2004-06-01 08:24:58 51°10.699 2°43.528 253.4 13.3 250 10.8
2004-06-01 08:25:02 51°10.694 2°43.506 253.1 13.3 250 10.8
2004-06-01 08:25:08 51°10.686 2°43.473 253.1 13.3 250 10.9
2004-06-01 08:25:12 51°10.682 2°43.451 252.7 13.3 251 10.9
2004-06-01 08:25:18 51°10.674 2°43.419 253.3 13.2 249 10.9
2004-06-01 08:25:21 51°10.67 2°43.402 252.8 13.3 250 10.9
2004-06-01 08:25:28 51°10.661 2°43.364 253 13.3 250 10.9
2004-06-01 08:25:32 51°10.656 2°43.341 253.3 13.3 250 10.8
2004-06-01 08:25:38 51°10.648 2°43.308 253.3 13.3 249 10.9
2004-06-01 08:25:42 51°10.643 2°43.286 253.5 13.3 251 10.9
2004-06-01 08:25:48 51°10.636 2°43.253 253.2 13.2 249 10.9
2004-06-01 08:25:52 51°10.63 2°43.231 253.2 13.3 250 10.9
2004-06-01 08:25:58 51°10.623 2°43.198 253.7 13.3 249 10.9
2004-06-01 08:26:02 51°10.618 2°43.176 253.5 13.3 251 10.9
2004-06-01 08:26:08 51°10.61 2°43.143 253.6 13.2 250 10.9
2004-06-01 08:26:12 51°10.605 2°43.121 253.8 13.2 250 10.9
2004-06-01 08:26:18 51°10.598 2°43.088 253.7 13.2 250 10.9
2004-06-01 08:26:22 51°10.593 2°43.067 253.5 13.2 250 10.9
2004-06-01 08:26:28 51°10.585 2°43.034 253.2 13.2 249 10.9
2004-06-01 08:26:32 51°10.58 2°43.012 253.4 13.2 250 10.9
2004-06-01 08:26:38 51°10.572 2°42.979 253.5 13.2 249 10.9
2004-06-01 08:26:42 51°10.567 2°42.957 253.3 13.2 250 10.9
2004-06-01 08:26:47 51°10.561 2°42.93 253.3 13.2 250 10.9
2004-06-01 08:26:52 51°10.555 2°42.902 253.8 13.2 250 10.9
2004-06-01 08:26:56 51°10.55 2°42.88 253.7 13.1 250 10.9
2004-06-01 08:27:02 51°10.542 2°42.848 253.3 13.2 249 10.9
2004-06-01 08:27:08 51°10.535 2°42.815 253.3 13.1 250 10.9
2004-06-01 08:27:13 51°10.528 2°42.788 253.3 13.2 249 10.9
2004-06-01 08:27:18 51°10.523 2°42.76 253.5 13.2 252 10.9
2004-06-01 08:27:22 51°10.517 2°42.739 253.9 13.1 249 10.9
2004-06-01 08:27:28 51°10.51 2°42.706 253.6 13.2 251 10.9
2004-06-01 08:27:32 51°10.505 2°42.684 253.7 13.2 249 10.9
2004-06-01 08:27:38 51°10.497 2°42.651 253.4 13.2 251 11
2004-06-01 08:27:42 51°10.492 2°42.63 253.4 13.1 249 11
2004-06-01 08:27:48 51°10.485 2°42.597 253.2 13.2 250 11
2004-06-01 08:27:52 51°10.479 2°42.576 253.1 13.2 249 10.9
2004-06-01 08:27:58 51°10.472 2°42.543 253.1 13.1 250 11
2004-06-01 08:28:02 51°10.467 2°42.521 253.4 13.1 251 11
2004-06-01 08:28:07 51°10.461 2°42.494 253.6 13.2 250 11
2004-06-01 08:28:12 51°10.455 2°42.466 254 13.1 251 11
2004-06-01 08:28:16 51°10.45 2°42.445 254 13.1 250 11
2004-06-01 08:28:22 51°10.442 2°42.412 253.2 13.2 250 11
2004-06-01 08:28:28 51°10.435 2°42.379 253.3 13.2 251 11
2004-06-01 08:28:33 51°10.429 2°42.352 253.2 13.1 250 11
2004-06-01 08:28:38 51°10.422 2°42.325 253.2 13.1 249 11
2004-06-01 08:28:42 51°10.417 2°42.303 253.1 13.1 250 11
2004-06-01 08:28:48 51°10.41 2°42.27 253.3 13.1 250 11.1
2004-06-01 08:28:52 51°10.404 2°42.249 253.3 13.1 250 11.1
2004-06-01 08:28:58 51°10.397 2°42.216 253.1 13.2 250 11.1
2004-06-01 08:29:03 51°10.391 2°42.189 253.2 13.2 250 11.1
2004-06-01 08:29:08 51°10.384 2°42.161 253.3 13.2 250 11.2
2004-06-01 08:29:12 51°10.379 2°42.14 253.5 13.1 250 11.1
2004-06-01 08:29:18 51°10.372 2°42.107 253.3 13.1 251 11.1
2004-06-01 08:29:21 51°10.368 2°42.09 253.7 13.1 250 11.2
2004-06-01 08:29:28 51°10.36 2°42.052 253.2 13.1 250 11.1
2004-06-01 08:29:32 51°10.355 2°42.031 253.1 13.2 249 11.2
2004-06-01 08:29:38 51°10.347 2°41.998 252.9 13.1 250 11.2
2004-06-01 08:29:42 51°10.342 2°41.977 252.9 13.1 249 11.2
2004-06-01 08:29:48 51°10.335 2°41.944 252.7 13.1 249 11.3
2004-06-01 08:29:52 51°10.33 2°41.923 252.8 13.1 249 11.3
2004-06-01 08:29:58 51°10.322 2°41.89 252.8 13.1 250 11.2
2004-06-01 08:30:03 51°10.316 2°41.863 252.8 13.1 250 11.2
2004-06-01 08:30:08 51°10.31 2°41.836 253.3 13.1 250 11.2
2004-06-01 08:30:13 51°10.304 2°41.809 253.6 13.1 251 11.3
2004-06-01 08:30:18 51°10.297 2°41.782 253.7 13 250 11.3
2004-06-01 08:30:22 51°10.293 2°41.76 253.3 13 250 11.3
2004-06-01 08:30:28 51°10.285 2°41.728 253.2 13 250 11.3
2004-06-01 08:30:32 51°10.28 2°41.706 252.9 13.1 250 11.3
2004-06-01 08:30:38 51°10.272 2°41.674 253.2 13 251 11.3
2004-06-01 08:30:42 51°10.267 2°41.652 253.4 13 250 11.4
2004-06-01 08:30:48 51°10.26 2°41.619 253.7 13 251 11.4
2004-06-01 08:30:52 51°10.255 2°41.598 253.7 13 250 11.4
2004-06-01 08:30:58 51°10.248 2°41.566 253.1 13 250 11.4
2004-06-01 08:31:02 51°10.243 2°41.544 253.3 13 250 11.4
2004-06-01 08:31:07 51°10.237 2°41.517 253.4 13 250 11.4
2004-06-01 08:31:12 51°10.231 2°41.49 253.9 13 251 11.4
2004-06-01 08:31:16 51°10.226 2°41.468 253.7 13 250 11.4
2004-06-01 08:31:22 51°10.218 2°41.436 253.5 13 250 11.4
2004-06-01 08:31:28 51°10.211 2°41.404 252.6 13 249 11.4
2004-06-01 08:31:33 51°10.205 2°41.377 252.6 13 249 11.4
2004-06-01 08:31:38 51°10.199 2°41.35 252.8 13 251 11.5
2004-06-01 08:31:42 51°10.194 2°41.328 253.3 13 250 11.6
2004-06-01 08:31:48 51°10.187 2°41.296 253.4 13 251 11.5
2004-06-01 08:31:53 51°10.181 2°41.268 254.1 13 251 11.6
2004-06-01 08:31:58 51°10.175 2°41.242 254 12.9 250 11.6
2004-06-01 08:32:02 51°10.17 2°41.22 253.3 13 250 11.6
2004-06-01 08:32:08 51°10.163 2°41.188 253.1 13 250 11.6
2004-06-01 08:32:12 51°10.158 2°41.166 253.5 12.9 250 11.6
2004-06-01 08:32:18 51°10.151 2°41.134 253.2 12.9 250 11.7
2004-06-01 08:32:23 51°10.144 2°41.107 252.7 13 249 11.6
2004-06-01 08:32:28 51°10.138 2°41.081 252.5 13 250 11.7
2004-06-01 08:32:32 51°10.133 2°41.059 252.6 12.9 250 11.7
2004-06-01 08:32:38 51°10.126 2°41.027 252.9 12.9 251 11.7
2004-06-01 08:32:42 51°10.121 2°41.005 253 13 251 11.7
2004-06-01 08:32:48 51°10.114 2°40.973 253.4 12.9 251 11.8
2004-06-01 08:32:52 51°10.109 2°40.951 253.5 13 251 11.7
2004-06-01 08:32:58 51°10.102 2°40.919 253.5 13 251 11.8
2004-06-01 08:33:02 51°10.097 2°40.897 253.5 13 251 11.7
2004-06-01 08:33:08 51°10.09 2°40.865 253.4 13 251 11.8
2004-06-01 08:33:12 51°10.085 2°40.844 253 12.9 250 11.7
2004-06-01 08:33:18 51°10.077 2°40.812 252.5 12.9 250 11.8
2004-06-01 08:33:21 51°10.073 2°40.796 252.4 13 250 11.8
2004-06-01 08:33:28 51°10.065 2°40.758 252.9 13 250 11.9
2004-06-01 08:33:32 51°10.06 2°40.737 253.3 12.9 251 11.9
2004-06-01 08:33:38 51°10.053 2°40.704 253.8 12.9 251 12
2004-06-01 08:33:42 51°10.049 2°40.683 253.9 12.9 251 12
2004-06-01 08:33:48 51°10.041 2°40.651 253.2 12.9 250 11.9
2004-06-01 08:33:52 51°10.036 2°40.629 253 12.9 250 11.9
2004-06-01 08:33:58 51°10.029 2°40.597 252.6 13 250 11.9
2004-06-01 08:34:03 51°10.023 2°40.57 252.8 12.9 250 12
2004-06-01 08:34:08 51°10.017 2°40.543 253.1 12.9 250 12
2004-06-01 08:34:13 51°10.011 2°40.517 253.4 12.9 250 12
2004-06-01 08:34:18 51°10.005 2°40.489 253.3 13 251 12.1
2004-06-01 08:34:21 51°10.002 2°40.473 253.6 12.9 250 12
2004-06-01 08:34:28 51°9.993 2°40.436 253.6 12.9 251 12
2004-06-01 08:34:33 51°9.987 2°40.409 253.3 12.9 250 12
2004-06-01 08:34:38 51°9.981 2°40.382 253.2 12.9 250 12.1
2004-06-01 08:34:43 51°9.975 2°40.355 253.2 12.9 250 12.1
2004-06-01 08:34:48 51°9.969 2°40.328 253.1 12.9 250 12.1
2004-06-01 08:34:53 51°9.963 2°40.301 253.3 13 251 12.1
2004-06-01 08:34:58 51°9.957 2°40.274 253.6 13 250 12.1
2004-06-01 08:35:03 51°9.951 2°40.247 253.4 13 250 12.1
2004-06-01 08:35:08 51°9.945 2°40.22 253.4 12.9 250 12.1
2004-06-01 08:35:12 51°9.939 2°40.199 252.8 13 249 12.2
2004-06-01 08:35:18 51°9.932 2°40.167 252.4 13 250 12.1
2004-06-01 08:35:22 51°9.927 2°40.145 252.5 13 250 12.1
2004-06-01 08:35:28 51°9.92 2°40.113 252.8 13 250 12.2
2004-06-01 08:35:32 51°9.915 2°40.091 253.4 13 250 12.2
2004-06-01 08:35:38 51°9.908 2°40.058 253.6 13 251 12.2
2004-06-01 08:35:42 51°9.903 2°40.037 253.7 13 251 12.2
2004-06-01 08:35:48 51°9.896 2°40.004 253.8 13.1 251 12.2
2004-06-01 08:35:52 51°9.891 2°39.982 253.8 13 251 12.2
2004-06-01 08:35:58 51°9.883 2°39.95 254 13 250 12.2
2004-06-01 08:36:03 51°9.878 2°39.922 253.5 13.1 251 12.3
2004-06-01 08:36:08 51°9.871 2°39.896 253.5 13 250 12.3
2004-06-01 08:36:12 51°9.867 2°39.874 253 13.1 251 12.2
2004-06-01 08:36:18 51°9.859 2°39.841 253.2 13.1 251 12.2
2004-06-01 08:36:22 51°9.855 2°39.819 254 13.1 251 12.3
2004-06-01 08:36:27 51°9.849 2°39.792 253.8 13.1 251 12.3
2004-06-01 08:36:32 51°9.843 2°39.765 253.9 13 250 12.3
2004-06-01 08:36:36 51°9.838 2°39.744 253.3 13 250 12.3
2004-06-01 08:36:42 51°9.83 2°39.711 253.2 13 250 12.3
2004-06-01 08:36:48 51°9.823 2°39.679 253.3 13 250 12.3
2004-06-01 08:36:52 51°9.818 2°39.657 253.4 13.1 251 12.3
2004-06-01 08:36:58 51°9.811 2°39.624 253.8 13 251 12.3
2004-06-01 08:37:02 51°9.806 2°39.603 253.8 13 251 12.4
2004-06-01 08:37:08 51°9.799 2°39.57 253.9 13 251 12.4
2004-06-01 08:37:12 51°9.794 2°39.549 253.5 13 251 12.4
2004-06-01 08:37:18 51°9.787 2°39.516 253.2 13 250 12.4
2004-06-01 08:37:22 51°9.782 2°39.495 252.7 13 251 12.4
2004-06-01 08:37:28 51°9.775 2°39.463 253 12.9 250 12.4
2004-06-01 08:37:33 51°9.769 2°39.436 252.9 12.9 251 12.4
2004-06-01 08:37:38 51°9.763 2°39.409 253.5 12.9 250 12.4
2004-06-01 08:37:42 51°9.758 2°39.387 253.3 13 251 12.4
2004-06-01 08:37:46 51°9.753 2°39.366 253.3 13 250 12.5
2004-06-01 08:37:53 51°9.745 2°39.328 253.5 12.9 251 12.5
2004-06-01 08:37:58 51°9.739 2°39.301 253.6 12.9 250 12.5
2004-06-01 08:38:00 51°9.737 2°39.29 253.4 12.9 251 12.5
2004-06-01 08:38:08 51°9.727 2°39.247 253.2 12.9 251 12.6
2004-06-01 08:38:13 51°9.721 2°39.22 253.2 13 250 12.6
2004-06-01 08:38:18 51°9.715 2°39.193 253.4 13 251 12.6
2004-06-01 08:38:23 51°9.709 2°39.166 253.8 12.9 250 12.6
2004-06-01 08:38:28 51°9.704 2°39.139 253.5 12.9 251 12.7
2004-06-01 08:38:32 51°9.699 2°39.118 253.3 12.9 251 12.6
2004-06-01 08:38:38 51°9.692 2°39.086 253.3 12.9 251 12.7
2004-06-01 08:38:41 51°9.688 2°39.069 253.3 12.9 251 12.7
2004-06-01 08:38:48 51°9.68 2°39.032 253.5 12.9 251 12.7
2004-06-01 08:38:52 51°9.676 2°39.01 253.6 12.9 252 12.7
2004-06-01 08:38:58 51°9.668 2°38.978 253.6 12.9 250 12.8
2004-06-01 08:39:02 51°9.664 2°38.957 253.3 12.9 251 12.8
2004-06-01 08:39:08 51°9.657 2°38.924 253.2 12.9 250 12.9
2004-06-01 08:39:12 51°9.652 2°38.903 253.2 12.9 250 12.9
2004-06-01 08:39:18 51°9.645 2°38.87 253.2 12.9 251 12.9
2004-06-01 08:39:22 51°9.64 2°38.849 253.3 12.9 251 12.9
2004-06-01 08:39:28 51°9.633 2°38.817 253.4 12.9 251 12.9
2004-06-01 08:39:32 51°9.628 2°38.795 253.3 12.9 251 13
2004-06-01 08:39:38 51°9.621 2°38.763 253.3 12.9 250 12.9
2004-06-01 08:39:42 51°9.617 2°38.742 253.3 12.9 251 12.9
2004-06-01 08:39:48 51°9.61 2°38.709 253.2 12.9 250 13
2004-06-01 08:39:52 51°9.605 2°38.688 253.4 12.9 250 13
2004-06-01 08:39:58 51°9.598 2°38.656 253.4 12.9 251 13
2004-06-01 08:40:02 51°9.593 2°38.635 253.7 12.9 251 13
2004-06-01 08:40:08 51°9.586 2°38.603 253.5 12.8 250 13
2004-06-01 08:40:12 51°9.581 2°38.581 253.1 12.9 250 13.1
2004-06-01 08:40:18 51°9.574 2°38.549 252.9 12.9 250 13
2004-06-01 08:40:23 51°9.568 2°38.522 253.1 12.9 251 13
2004-06-01 08:40:28 51°9.563 2°38.495 253.3 12.8 251 13
2004-06-01 08:40:32 51°9.558 2°38.474 253.7 12.8 251 13.1
2004-06-01 08:40:38 51°9.551 2°38.442 253.6 12.8 251 13
2004-06-01 08:40:42 51°9.546 2°38.421 253.2 12.8 250 13.1
2004-06-01 08:40:48 51°9.539 2°38.388 253 12.8 250 13.1
2004-06-01 08:40:52 51°9.534 2°38.367 252.8 12.8 251 13.1
2004-06-01 08:40:58 51°9.527 2°38.335 253.3 12.8 250 13.1
2004-06-01 08:41:02 51°9.523 2°38.314 253.3 12.8 252 13.1
2004-06-01 08:41:08 51°9.516 2°38.282 253.5 12.8 250 13.1
2004-06-01 08:41:13 51°9.51 2°38.255 254.1 12.7 250 13.2
2004-06-01 08:41:18 51°9.504 2°38.229 253.4 12.8 251 13.2
2004-06-01 08:41:22 51°9.5 2°38.207 252.9 12.8 250 13.2
2004-06-01 08:41:28 51°9.492 2°38.175 253.5 12.8 251 13.1
2004-06-01 08:41:32 51°9.488 2°38.154 253.1 12.8 251 13.2
2004-06-01 08:41:38 51°9.481 2°38.122 253.1 12.8 250 13.2
2004-06-01 08:41:41 51°9.477 2°38.106 253.1 12.7 251 13.2
2004-06-01 08:41:48 51°9.469 2°38.069 253.1 12.7 250 13.2
2004-06-01 08:41:52 51°9.464 2°38.048 252.9 12.8 250 13.2
2004-06-01 08:41:58 51°9.457 2°38.016 253.1 12.7 251 13.2
2004-06-01 08:42:03 51°9.451 2°37.99 253.1 12.7 250 13.3
2004-06-01 08:42:08 51°9.446 2°37.963 252.9 12.7 251 13.3
2004-06-01 08:42:12 51°9.441 2°37.942 253.1 12.7 250 13.3
2004-06-01 08:42:17 51°9.435 2°37.915 253.1 12.7 251 13.3
2004-06-01 08:42:22 51°9.429 2°37.889 252.9 12.8 250 13.3
2004-06-01 08:42:28 51°9.422 2°37.857 253.3 12.7 251 13.4
2004-06-01 08:42:32 51°9.417 2°37.836 253.2 12.7 250 13.4
2004-06-01 08:42:38 51°9.41 2°37.804 252.5 12.8 250 13.4
2004-06-01 08:42:43 51°9.404 2°37.778 252.9 12.7 251 13.4
2004-06-01 08:42:48 51°9.399 2°37.752 253 12.7 250 13.4
2004-06-01 08:42:53 51°9.393 2°37.725 252.9 12.7 251 13.4
2004-06-01 08:42:58 51°9.387 2°37.698 253.5 12.7 251 13.4
2004-06-01 08:43:02 51°9.382 2°37.677 253.3 12.8 251 13.5
2004-06-01 08:43:08 51°9.375 2°37.646 253.3 12.7 251 13.5
2004-06-01 08:43:12 51°9.371 2°37.624 253.3 12.7 250 13.5
2004-06-01 08:43:16 51°9.366 2°37.603 253.2 12.7 251 13.6
2004-06-01 08:43:21 51°9.36 2°37.577 253.3 12.7 250 13.6
2004-06-01 08:43:28 51°9.351 2°37.542 251.2 12.3 248 13.6
2004-06-01 08:43:32 51°9.345 2°37.523 250.2 11.9 245 13.6
2004-06-01 08:43:38 51°9.337 2°37.495 248.8 11.6 245 13.6
2004-06-01 08:43:42 51°9.332 2°37.478 247.7 11.1 243 13.6
2004-06-01 08:43:48 51°9.323 2°37.452 246.5 11 242 13.6
2004-06-01 08:43:52 51°9.317 2°37.436 245.4 10.5 240 13.7
2004-06-01 08:43:58 51°9.307 2°37.415 242.4 10.3 235 13.7
2004-06-01 08:44:03 51°9.299 2°37.398 239.1 9.6 231 13.6
2004-06-01 08:44:08 51°9.291 2°37.384 234.3 9.1 228 13.6
2004-06-01 08:44:13 51°9.282 2°37.371 231.4 8.5 227 13.6
2004-06-01 08:44:18 51°9.275 2°37.358 230.6 8.1 227 13.6
2004-06-01 08:44:22 51°9.27 2°37.347 231.9 7.6 231 13.6
2004-06-01 08:44:28 51°9.263 2°37.332 235.2 7.1 235 13.6
2004-06-01 08:44:33 51°9.258 2°37.319 238.5 6.9 237 13.6
2004-06-01 08:44:38 51°9.253 2°37.307 241.1 6.6 237 13.5
2004-06-01 08:44:42 51°9.249 2°37.298 241.6 6.3 238 13.5
2004-06-01 08:44:48 51°9.244 2°37.285 241.6 6.2 237 13.5
2004-06-01 08:44:52 51°9.24 2°37.277 241.1 5.6 236 13.5
2004-06-01 08:44:58 51°9.235 2°37.265 240.2 5.3 235 13.5
2004-06-01 08:45:03 51°9.231 2°37.257 238.4 5 233 13.4
2004-06-01 08:45:08 51°9.227 2°37.249 236.6 4.9 232 13.4
2004-06-01 08:45:12 51°9.224 2°37.243 234.7 4.4 228 13.4
2004-06-01 08:45:18 51°9.219 2°37.236 231.9 4.2 224 13.4
2004-06-01 08:45:21 51°9.216 2°37.233 229.3 4 222 13.3
2004-06-01 08:45:28 51°9.21 2°37.226 226.7 3.8 219 13.3
2004-06-01 08:45:32 51°9.207 2°37.223 224.4 3.4 215 13.3
2004-06-01 08:45:38 51°9.203 2°37.218 222.7 3.3 212 13.3
2004-06-01 08:45:42 51°9.2 2°37.215 221.1 3.2 211 13.3
2004-06-01 08:45:48 51°9.195 2°37.212 219.6 3.1 207 13.2
2004-06-01 08:45:52 51°9.192 2°37.209 218.5 3 208 13.2
2004-06-01 08:45:58 51°9.188 2°37.206 217.9 2.9 207 13.1
2004-06-01 08:46:02 51°9.185 2°37.203 217.9 2.7 208 13.1
2004-06-01 08:46:08 51°9.181 2°37.2 218.6 2.7 206 13.1
2004-06-01 08:46:13 51°9.179 2°37.197 220.3 2.5 211 13.1
2004-06-01 08:46:18 51°9.176 2°37.195 222.6 2.4 212 13.1
2004-06-01 08:46:21 51°9.174 2°37.193 224.8 2.2 216 13.1
2004-06-01 08:46:28 51°9.171 2°37.189 228.1 2.1 217 13
2004-06-01 08:46:33 51°9.17 2°37.186 230.4 1.9 223 13
2004-06-01 08:46:38 51°9.168 2°37.184 233.6 1.8 225 13
2004-06-01 08:46:43 51°9.166 2°37.181 235.8 1.7 231 13
2004-06-01 08:46:48 51°9.165 2°37.178 238 1.5 232 13
2004-06-01 08:46:53 51°9.164 2°37.176 240 1.3 235 13
2004-06-01 08:46:58 51°9.163 2°37.174 241 1.1 235 13
2004-06-01 08:47:02 51°9.163 2°37.173 240.8 0.8 234 13
2004-06-01 08:47:08 51°9.162 2°37.172 239.5 0.5 233 13
2004-06-01 08:47:12 51°9.162 2°37.172 238.2 0.3 220 13
2004-06-01 08:47:18 51°9.162 2°37.172 235.8 0.2 218 13
2004-06-01 08:47:22 51°9.162 2°37.172 234 0.2 199 13
2004-06-01 08:47:28 51°9.161 2°37.172 232.2 0.2 196 13
2004-06-01 08:47:32 51°9.161 2°37.172 231.1 0.2 178 13
2004-06-01 08:47:38 51°9.161 2°37.172 230.2 0.2 173 13
2004-06-01 08:47:42 51°9.161 2°37.172 229.6 0.1 162 13
2004-06-01 08:47:48 51°9.161 2°37.172 229.3 0.1 143 13
2004-06-01 08:47:52 51°9.16 2°37.172 229.3 0.1 141 13.1
2004-06-01 08:47:58 51°9.16 2°37.172 229.3 0.1 128 13
2004-06-01 08:48:02 51°9.16 2°37.173 229.6 0.1 111 13
2004-06-01 08:48:08 51°9.16 2°37.173 230 0.1 94 13
2004-06-01 08:48:12 51°9.16 2°37.173 230.1 0.1 79 13
2004-06-01 08:48:18 51°9.16 2°37.173 230.5 0.2 86 13
2004-06-01 08:48:21 51°9.16 2°37.174 230.8 0.2 85 13
2004-06-01 08:48:28 51°9.161 2°37.174 231.2 0.2 73 13
2004-06-01 08:48:32 51°9.161 2°37.174 231.4 0.2 71 13
2004-06-01 08:48:38 51°9.161 2°37.175 231.9 0.2 66 13
2004-06-01 08:48:42 51°9.161 2°37.175 232.3 0.3 74 13
2004-06-01 08:48:48 51°9.161 2°37.176 232.7 0.2 58 13
2004-06-01 08:48:53 51°9.161 2°37.177 232.9 0.3 60 13
2004-06-01 08:48:58 51°9.161 2°37.177 233.2 0.3 57 13
2004-06-01 08:49:02 51°9.162 2°37.178 233.6 0.3 65 13
2004-06-01 08:49:08 51°9.162 2°37.178 234.1 0.3 54 13
2004-06-01 08:49:13 51°9.162 2°37.179 234.3 0.4 64 13
2004-06-01 08:49:18 51°9.162 2°37.18 234.5 0.3 45 13
2004-06-01 08:49:22 51°9.163 2°37.18 235 0.4 57 13.1
2004-06-01 08:49:28 51°9.163 2°37.181 235.2 0.4 58 13.1
2004-06-01 08:49:32 51°9.163 2°37.182 235.6 0.4 50 13
2004-06-01 08:49:38 51°9.164 2°37.183 235.9 0.4 57 13.1
2004-06-01 08:49:42 51°9.164 2°37.183 236.5 0.5 56 13.1
2004-06-01 08:49:48 51°9.165 2°37.184 236.6 0.4 49 13.1
2004-06-01 08:49:52 51°9.165 2°37.185 237.1 0.5 50 13.1
2004-06-01 08:49:58 51°9.165 2°37.186 237.5 0.5 41 13.1
2004-06-01 08:50:02 51°9.166 2°37.187 237.9 0.5 44 13.1
2004-06-01 08:50:08 51°9.166 2°37.188 238.5 0.5 48 13.1
2004-06-01 08:50:13 51°9.167 2°37.189 238.8 0.5 50 13.1
2004-06-01 08:50:18 51°9.167 2°37.19 239.2 0.5 44 13.1
2004-06-01 08:50:22 51°9.168 2°37.19 239.5 0.5 48 13.1
2004-06-01 08:50:28 51°9.168 2°37.191 239.7 0.6 46 13.1
2004-06-01 08:50:33 51°9.169 2°37.192 240.1 0.6 48 13.1
2004-06-01 08:50:38 51°9.169 2°37.193 240.3 0.6 47 13.1
2004-06-01 08:50:42 51°9.17 2°37.194 240.6 0.6 50 13.1
2004-06-01 08:50:48 51°9.171 2°37.195 240.8 0.6 51 13.1